Capreol, Canada
Current Conditions -  °F | °C
As of 12:00 PM on Saturday 25 Oct 2014 (Local Time) from CYSB Reporting Station
Broken Clouds Broken Clouds  
Wind Chill: 54°   Ceiling: 1700
Heat Index: 54°   Visibility: 20mi
Dew Point: 48°   Wind: 13mph
Humidity: 82%   Direction: 270°W
Pressure: 29.49"   Gusts: 22mph
Location:  46.7°N, 80.92°W
Report Text: CYSB 251600Z 27011G19KT 20SM BKN017 12/09 A2949 RMK CU7 SLP993 DENSITY ALT 1500FT
Loading
Personal Weather Stations






























Interactive Weather Map
Tropical Storm Tracking
New forecast layout! Learn more

10-Day Weather Forecast

Advertisements
Track Severe Weather on mobile